Time;durP1;ratioP1;P1;durP2;ratioP2;P2;SDS_P1;SDS_P2;PMS_P1;PMS_P2;Temp;Humidity;BMP_temperature;BMP_pressure;BME280_temperature;BME280_humidity;BME280_pressure;Samples;Min_cycle;Max_cycle;Signal;HPM_P1;HPM_P2
2021/11/02 00:00:31;;;;;;;4.03;1.30;;;;;;;6.82;100.00;95648.09;5036422;28;20368;-81
2021/11/02 00:02:57;;;;;;;4.85;1.27;;;;;;;6.85;100.00;95650.09;5036548;28;20025;-81
2021/11/02 00:05:23;;;;;;;3.85;1.73;;;;;;;6.86;100.00;95647.09;5054446;28;20024;-81
2021/11/02 00:07:48;;;;;;;4.40;1.30;;;;;;;6.91;100.00;95656.81;5036577;28;20036;-81
2021/11/02 00:10:14;;;;;;;4.72;1.30;;;;;;;6.93;100.00;95654.56;5053926;28;20027;-81
2021/11/02 00:12:40;;;;;;;2.37;1.20;;;;;;;6.97;100.00;95645.47;5036598;28;20499;-81
2021/11/02 00:15:06;;;;;;;3.03;1.30;;;;;;;7.01;100.00;95648.28;5036701;28;20024;-81
2021/11/02 00:17:34;;;;;;;3.97;1.25;;;;;;;7.05;100.00;95649.94;5054089;28;20028;-81
2021/11/02 00:20:02;;;;;;;4.13;1.50;;;;;;;7.04;100.00;95650.28;5036298;28;20032;-81
2021/11/02 00:22:28;;;;;;;3.78;1.30;;;;;;;7.05;100.00;95649.94;5036109;28;20043;-81
2021/11/02 00:27:26;;;;;;;3.08;1.30;;;;;;;7.06;100.00;95648.03;5054350;28;20021;-82
2021/11/02 00:29:53;;;;;;;4.03;1.50;;;;;;;7.11;100.00;95645.09;5036382;28;20078;-81
2021/11/02 00:32:19;;;;;;;7.90;1.95;;;;;;;7.13;100.00;95648.22;5035955;28;20111;-81
2021/11/02 00:34:44;;;;;;;5.07;1.90;;;;;;;7.14;100.00;95649.03;5054181;28;20120;-82
2021/11/02 00:37:10;;;;;;;3.93;1.70;;;;;;;7.14;100.00;95644.44;5036197;28;20021;-82
2021/11/02 00:39:36;;;;;;;3.42;1.58;;;;;;;7.13;100.00;95652.81;5036529;28;20430;-82
2021/11/02 00:42:01;;;;;;;2.97;1.37;;;;;;;7.14;100.00;95655.19;5053592;28;20029;-81
2021/11/02 00:44:27;;;;;;;3.60;1.60;;;;;;;7.12;100.00;95646.66;5036076;28;20390;-81
2021/11/02 00:46:52;;;;;;;2.73;1.20;;;;;;;7.13;100.00;95644.75;5036137;28;20056;-81
2021/11/02 00:49:20;;;;;;;4.78;1.10;;;;;;;7.18;100.00;95644.50;5053654;28;20056;-82
2021/11/02 00:51:46;;;;;;;3.90;1.30;;;;;;;7.21;100.00;95638.47;5035634;28;20482;-82
2021/11/02 00:54:12;;;;;;;5.05;1.40;;;;;;;7.23;100.00;95637.00;5036095;28;20025;-82
2021/11/02 00:56:38;;;;;;;5.80;1.30;;;;;;;7.29;100.00;95640.22;5053960;28;20402;-82
2021/11/02 00:59:03;;;;;;;3.63;1.45;;;;;;;7.39;100.00;95640.50;5036225;28;20589;-82
2021/11/02 01:01:29;;;;;;;2.50;1.23;;;;;;;7.40;100.00;95631.31;5053212;28;20044;-82
2021/11/02 01:03:54;;;;;;;2.15;1.20;;;;;;;7.41;99.77;95640.94;5069254;28;20021;-82
2021/11/02 01:06:19;;;;;;;3.80;1.20;;;;;;;7.41;100.00;95626.72;5053752;28;20056;-81
2021/11/02 01:08:45;;;;;;;3.60;1.40;;;;;;;7.41;99.83;95637.47;5069129;28;20028;-81
2021/11/02 01:11:10;;;;;;;3.73;1.30;;;;;;;7.41;99.33;95640.94;5053408;28;20035;-82
2021/11/02 01:13:35;;;;;;;4.17;1.30;;;;;;;7.40;99.51;95634.00;5053889;28;20026;-81
2021/11/02 01:16:02;;;;;;;6.40;1.40;;;;;;;7.39;99.37;95635.13;5053876;28;20028;-81
2021/11/02 01:18:27;;;;;;;3.30;1.30;;;;;;;7.38;99.71;95635.47;5035887;28;20016;-81
2021/11/02 01:20:53;;;;;;;3.03;1.17;;;;;;;7.36;99.61;95635.03;5068648;28;20032;-81
2021/11/02 01:23:18;;;;;;;3.80;1.15;;;;;;;7.36;99.38;95627.75;5062225;28;20025;-81
2021/11/02 01:25:45;;;;;;;4.07;1.50;;;;;;;7.33;100.00;95633.81;5054199;28;20036;-81
2021/11/02 01:28:10;;;;;;;3.42;1.30;;;;;;;7.34;99.81;95631.91;5035448;28;20555;-82
2021/11/02 01:30:37;;;;;;;2.70;1.00;;;;;;;7.32;99.60;95632.22;5035006;28;20033;-82
2021/11/02 01:33:02;;;;;;;2.85;1.30;;;;;;;7.27;99.63;95624.41;5068980;28;20040;-82
2021/11/02 01:35:28;;;;;;;3.22;1.20;;;;;;;7.29;100.00;95635.63;5035459;28;20029;-82
2021/11/02 01:37:54;;;;;;;6.47;1.30;;;;;;;7.28;99.95;95622.50;5035645;28;20021;-82
2021/11/02 01:40:20;;;;;;;2.75;1.20;;;;;;;7.28;100.00;95627.88;5034932;28;20067;-82
2021/11/02 01:42:47;;;;;;;5.50;1.40;;;;;;;7.28;100.00;95625.19;5068823;28;20090;-82
2021/11/02 01:45:14;;;;;;;4.22;1.52;;;;;;;7.25;100.00;95625.88;5053050;28;20070;-82
2021/11/02 01:47:43;;;;;;;4.63;1.40;;;;;;;7.25;100.00;95625.88;5035133;28;20033;-81
2021/11/02 01:50:09;;;;;;;3.88;1.20;;;;;;;7.25;100.00;95628.56;5034637;28;20028;-81
2021/11/02 01:52:34;;;;;;;4.68;1.83;;;;;;;7.25;100.00;95637.41;5068352;28;20025;-81
2021/11/02 01:55:01;;;;;;;4.80;1.40;;;;;;;7.23;100.00;95636.22;5068562;28;20024;-81
2021/11/02 01:57:27;;;;;;;2.03;0.88;;;;;;;7.19;100.00;95633.41;5035026;28;20017;-81
2021/11/02 01:59:53;;;;;;;3.67;1.23;;;;;;;7.22;100.00;95631.94;5035025;28;20542;-81
2021/11/02 02:02:33;;;;;;;2.58;1.08;;;;;;;7.23;100.00;95626.25;5052263;28;20028;-81
2021/11/02 02:05:11;;;;;;;3.20;1.23;;;;;;;7.22;100.00;95619.28;5034928;28;20386;-81
2021/11/02 02:07:45;;;;;;;5.27;1.40;;;;;;;7.22;99.88;95613.91;5034886;28;20036;-81
2021/11/02 02:10:32;;;;;;;4.78;1.40;;;;;;;7.21;99.93;95625.00;5034600;28;20103;-81
2021/11/02 02:13:08;;;;;;;5.15;1.00;;;;;;;7.17;100.00;95619.53;5034862;28;20082;-81
2021/11/02 02:15:42;;;;;;;3.50;1.17;;;;;;;7.15;100.00;95623.69;5054730;28;20021;-81
2021/11/02 02:18:33;;;;;;;2.50;1.00;;;;;;;7.13;100.00;95613.25;5038517;28;20025;-81
2021/11/02 02:21:16;;;;;;;2.87;1.13;;;;;;;7.11;100.00;95612.81;5038101;28;20025;-82
2021/11/02 02:23:59;;;;;;;1.52;1.00;;;;;;;7.10;100.00;95602.41;5038506;28;20021;-82
2021/11/02 02:26:49;;;;;;;4.15;1.10;;;;;;;7.06;100.00;95610.38;5038541;28;20505;-82
2021/11/02 02:29:15;;;;;;;3.45;1.13;;;;;;;7.00;100.00;95609.84;5056467;28;20558;-81
2021/11/02 02:31:46;;;;;;;2.92;1.10;;;;;;;7.00;100.00;95609.06;5037871;28;20029;-82
2021/11/02 02:34:15;;;;;;;1.70;0.93;;;;;;;6.96;100.00;95618.94;5038504;28;20029;-81
2021/11/02 02:36:44;;;;;;;1.80;0.90;;;;;;;6.93;100.00;95606.94;5038522;28;20032;-82
2021/11/02 02:39:10;;;;;;;3.80;0.95;;;;;;;6.90;100.00;95610.31;5038332;28;20539;-82
2021/11/02 02:41:39;;;;;;;2.72;1.00;;;;;;;6.90;100.00;95617.59;5038006;28;20471;-82
2021/11/02 02:44:06;;;;;;;2.88;1.38;;;;;;;6.87;100.00;95613.69;5038215;28;20045;-81
2021/11/02 02:46:31;;;;;;;2.83;1.10;;;;;;;6.83;100.00;95609.31;5038081;28;20032;-81
2021/11/02 02:48:57;;;;;;;2.28;1.20;;;;;;;6.76;100.00;95607.19;5038043;28;20021;-81
2021/11/02 02:51:24;;;;;;;2.47;1.10;;;;;;;6.65;100.00;95604.22;5037713;28;20124;-81
2021/11/02 02:53:50;;;;;;;3.05;1.33;;;;;;;6.56;100.00;95608.94;5037996;28;20021;-82
2021/11/02 02:56:19;;;;;;;2.83;1.23;;;;;;;6.51;100.00;95608.38;5037880;28;20028;-81
2021/11/02 02:58:47;;;;;;;4.88;1.30;;;;;;;6.47;100.00;95599.41;5055668;28;20474;-81
2021/11/02 03:01:15;;;;;;;3.55;1.40;;;;;;;6.39;100.00;95590.38;5037322;28;20389;-81
2021/11/02 03:03:48;;;;;;;3.67;1.30;;;;;;;6.39;100.00;95593.06;5037997;28;20115;-82
2021/11/02 03:06:16;;;;;;;3.50;1.33;;;;;;;6.38;100.00;95602.25;5071104;28;20494;-81
2021/11/02 03:08:42;;;;;;;5.45;1.50;;;;;;;6.33;100.00;95605.16;5037656;28;20056;-82
2021/11/02 03:11:10;;;;;;;3.08;1.30;;;;;;;6.27;100.00;95604.59;5037188;28;20051;-82
2021/11/02 03:13:38;;;;;;;3.78;1.65;;;;;;;6.23;100.00;95606.41;5055578;28;20107;-82
2021/11/02 03:16:07;;;;;;;3.55;1.20;;;;;;;6.16;100.00;95600.81;5037642;28;20509;-81
2021/11/02 03:19:20;;;;;;;2.97;1.60;;;;;;;6.16;100.00;95603.50;5037696;28;20475;-82
2021/11/02 03:49:16;;;;;;;4.90;1.35;;;;;;;5.89;100.00;95604.94;5054913;28;20047;-82
2021/11/02 03:57:15;;;;;;;4.00;1.60;;;;;;;5.80;100.00;95612.28;5054410;28;20418;-81
2021/11/02 05:49:15;;;;;;;3.78;1.65;;;;;;;4.67;100.00;95593.03;5052778;28;20036;-79
2021/11/02 05:57:20;;;;;;;4.15;1.73;;;;;;;4.50;100.00;95600.41;5056843;28;20039;-80
2021/11/02 05:59:41;;;;;;;3.65;1.48;;;;;;;4.49;100.00;95594.25;5053140;28;20053;-81
2021/11/02 06:04:49;;;;;;;4.47;1.50;;;;;;;4.49;100.00;95606.84;5045775;28;20025;-82
2021/11/02 06:28:08;;;;;;;4.50;1.80;;;;;;;4.98;100.00;95606.00;5052049;28;20033;-91
2021/11/02 06:30:42;;;;;;;4.78;1.90;;;;;;;5.36;100.00;95608.50;5039108;28;20229;-83
2021/11/02 06:33:45;;;;;;;4.32;1.90;;;;;;;6.02;100.00;95605.72;5041070;28;20067;-83
2021/11/02 06:36:29;;;;;;;4.97;1.85;;;;;;;6.18;100.00;95603.91;5039536;28;20048;-83
2021/11/02 06:39:25;;;;;;;3.00;1.60;;;;;;;6.60;100.00;95601.78;5039691;28;20024;-87
2021/11/02 07:18:17;;;;;;;2.92;1.17;;;;;;;11.12;78.99;95616.41;5056603;28;20028;-87
2021/11/02 07:25:47;;;;;;;2.53;1.13;;;;;;;12.53;72.74;95605.44;5056177;28;20051;-87
2021/11/02 07:28:33;;;;;;;2.55;1.20;;;;;;;12.56;71.24;95612.84;5038128;28;20033;-87
2021/11/02 08:49:57;;;;;;;3.78;1.10;;;;;;;8.48;91.72;95616.69;5054780;28;20097;-86
2021/11/02 08:52:22;;;;;;;2.28;1.17;;;;;;;8.41;91.45;95627.31;5036589;28;20028;-86
2021/11/02 08:54:50;;;;;;;2.23;1.10;;;;;;;8.45;91.85;95623.59;5054315;28;20501;-85
2021/11/02 08:57:17;;;;;;;3.63;1.50;;;;;;;8.20;94.00;95625.66;5058495;28;20029;-84
2021/11/02 08:59:44;;;;;;;2.50;0.80;;;;;;;8.26;94.54;95626.16;5045475;28;20029;-85
2021/11/02 09:02:11;;;;;;;2.80;1.10;;;;;;;8.25;93.03;95616.53;5033096;28;20037;-85
2021/11/02 09:04:46;;;;;;;2.58;0.90;;;;;;;8.04;93.07;95632.16;5017189;28;20082;-85
2021/11/02 09:07:18;;;;;;;2.10;1.13;;;;;;;7.95;92.86;95618.13;5017141;28;20029;-85
2021/11/02 09:09:49;;;;;;;2.92;0.90;;;;;;;7.91;93.72;95626.09;5017165;28;20029;-85
2021/11/02 09:12:16;;;;;;;2.63;1.13;;;;;;;7.76;94.51;95629.53;5016498;28;20079;-85
2021/11/02 09:14:45;;;;;;;2.08;0.90;;;;;;;7.59;94.83;95633.38;5016337;28;20471;-85
2021/11/02 09:17:12;;;;;;;3.35;1.17;;;;;;;7.55;96.02;95632.47;5033849;28;20032;-85
2021/11/02 09:19:38;;;;;;;2.90;0.97;;;;;;;7.51;98.33;95630.81;5032741;28;20029;-85
2021/11/02 09:22:06;;;;;;;5.15;1.75;;;;;;;7.41;99.55;95637.47;5048934;28;20044;-85
2021/11/02 09:24:34;;;;;;;3.55;1.33;;;;;;;7.21;100.00;95633.84;5035867;28;20499;-85
2021/11/02 09:27:01;;;;;;;5.45;1.50;;;;;;;7.26;100.00;95643.59;5037857;28;20058;-84
2021/11/02 09:29:27;;;;;;;2.47;1.30;;;;;;;7.15;100.00;95632.53;5020100;28;20026;-83
2021/11/02 09:31:54;;;;;;;3.40;1.25;;;;;;;7.00;100.00;95641.31;5019425;28;20475;-84
2021/11/02 09:34:20;;;;;;;3.03;1.17;;;;;;;6.94;100.00;95635.41;5019912;28;20108;-83
2021/11/02 09:36:53;;;;;;;2.50;1.23;;;;;;;6.92;100.00;95634.19;5020085;28;20063;-84
2021/11/02 09:39:20;;;;;;;3.15;1.40;;;;;;;6.98;100.00;95643.56;5053129;28;20047;-83
2021/11/02 09:42:07;;;;;;;4.63;1.03;;;;;;;7.04;100.00;95636.81;5036996;28;20078;-83
2021/11/02 09:44:45;;;;;;;4.10;1.10;;;;;;;7.07;100.00;95641.53;5052899;28;20116;-83
2021/11/02 09:47:41;;;;;;;3.47;1.30;;;;;;;7.15;100.00;95643.31;5052603;28;20398;-83
2021/11/02 09:50:12;;;;;;;2.42;0.95;;;;;;;7.04;100.00;95639.50;5052566;28;20095;-83
2021/11/02 09:53:00;;;;;;;3.13;1.30;;;;;;;7.10;100.00;95638.16;5052764;28;20048;-83
2021/11/02 09:55:28;;;;;;;3.90;1.27;;;;;;;7.04;100.00;95634.13;5052559;28;20127;-83
2021/11/02 09:58:11;;;;;;;3.72;1.42;;;;;;;7.00;100.00;95631.34;5052631;28;20391;-83
2021/11/02 10:01:11;;;;;;;3.60;1.25;;;;;;;6.93;100.00;95633.06;5019227;28;20471;-83
2021/11/02 10:04:09;;;;;;;4.65;1.30;;;;;;;6.90;100.00;95636.41;5052606;28;20052;-84
2021/11/02 10:06:42;;;;;;;4.95;1.70;;;;;;;6.98;100.00;95635.50;5036975;28;20079;-83
2021/11/02 10:09:16;;;;;;;3.53;1.50;;;;;;;7.01;100.00;95637.53;5052303;28;20044;-83
2021/11/02 10:11:58;;;;;;;3.15;1.25;;;;;;;7.02;100.00;95639.09;5018781;28;20541;-83
2021/11/02 10:14:59;;;;;;;5.40;2.03;;;;;;;7.07;100.00;95636.16;5019164;28;20029;-83
2021/11/02 10:17:45;;;;;;;3.70;1.50;;;;;;;6.95;100.00;95634.28;5052133;28;20035;-83
2021/11/02 10:20:38;;;;;;;6.32;1.50;;;;;;;6.99;100.00;95639.75;5036308;28;20021;-83
2021/11/02 10:23:09;;;;;;;3.23;1.30;;;;;;;7.00;100.00;95634.03;5019015;28;20084;-83
2021/11/02 10:26:12;;;;;;;3.00;1.17;;;;;;;6.92;100.00;95636.88;5052201;28;20527;-83
2021/11/02 10:29:07;;;;;;;4.43;1.33;;;;;;;6.91;100.00;95625.31;5052011;28;20025;-82
2021/11/02 10:31:34;;;;;;;4.13;1.52;;;;;;;6.97;100.00;95626.66;5051614;28;20025;-83
2021/11/02 10:34:11;;;;;;;4.75;1.77;;;;;;;7.00;100.00;95627.88;5018776;28;20119;-83
2021/11/02 10:36:48;;;;;;;3.17;1.40;;;;;;;6.96;100.00;95629.69;5051201;28;20140;-82
2021/11/02 10:39:20;;;;;;;2.90;1.60;;;;;;;7.06;100.00;95629.19;5051945;28;20071;-82
2021/11/02 10:42:03;;;;;;;4.85;1.70;;;;;;;7.09;100.00;95628.53;5018315;28;20040;-83
2021/11/02 10:44:52;;;;;;;4.53;1.70;;;;;;;7.03;100.00;95621.84;5018480;28;20394;-82
2021/11/02 10:47:20;;;;;;;4.30;1.70;;;;;;;7.12;100.00;95627.03;5034703;28;20197;-82
2021/11/02 10:50:09;;;;;;;4.20;1.70;;;;;;;7.02;100.00;95623.72;5018537;28;20025;-84
2021/11/02 10:52:38;;;;;;;3.80;1.48;;;;;;;7.04;100.00;95620.69;5018430;28;20040;-83
2021/11/02 10:55:24;;;;;;;4.43;1.60;;;;;;;7.03;100.00;95617.22;5018553;28;20034;-84
2021/11/02 10:58:13;;;;;;;5.65;1.45;;;;;;;6.97;100.00;95617.78;5018446;28;20047;-83
2021/11/02 11:00:41;;;;;;;5.35;1.77;;;;;;;7.09;100.00;95615.09;5035710;28;20087;-84
2021/11/02 11:03:10;;;;;;;3.33;1.60;;;;;;;7.02;100.00;95615.66;5070470;28;20029;-82
2021/11/02 11:05:36;;;;;;;5.00;1.90;;;;;;;7.12;100.00;95614.38;5037847;28;20398;-82
2021/11/02 11:08:04;;;;;;;5.93;2.10;;;;;;;7.17;100.00;95616.84;5037835;28;20029;-83
2021/11/02 11:10:30;;;;;;;5.05;2.05;;;;;;;7.27;100.00;95618.25;5037582;28;20540;-82
2021/11/02 11:12:59;;;;;;;4.50;1.88;;;;;;;7.22;100.00;95618.50;5055511;28;20025;-83
2021/11/02 11:15:35;;;;;;;5.63;1.73;;;;;;;7.15;100.00;95621.78;5037988;28;20025;-83
2021/11/02 11:18:06;;;;;;;4.38;1.70;;;;;;;7.13;100.00;95609.78;5037493;28;20028;-83
2021/11/02 11:20:34;;;;;;;5.18;2.00;;;;;;;7.22;100.00;95613.13;5037552;28;20368;-82
2021/11/02 11:23:04;;;;;;;4.45;1.98;;;;;;;7.39;100.00;95615.50;5037708;28;20417;-82
2021/11/02 11:25:37;;;;;;;5.95;1.70;;;;;;;7.58;100.00;95606.78;5055311;28;20029;-82
2021/11/02 11:28:03;;;;;;;4.43;1.60;;;;;;;7.77;100.00;95604.97;5037606;28;20021;-82
2021/11/02 11:30:35;;;;;;;4.18;1.60;;;;;;;7.88;100.00;95607.16;5054797;28;20028;-82
2021/11/02 11:33:09;;;;;;;5.75;1.70;;;;;;;8.11;100.00;95606.19;5037295;28;20441;-82
2021/11/02 11:35:35;;;;;;;3.67;1.40;;;;;;;8.22;100.00;95607.25;5055327;28;20020;-83
2021/11/02 11:38:04;;;;;;;3.60;1.50;;;;;;;8.26;100.00;95597.31;5037432;28;20020;-82
2021/11/02 11:40:33;;;;;;;4.43;1.60;;;;;;;8.65;100.00;95600.16;5037002;28;20498;-82
2021/11/02 11:43:02;;;;;;;5.43;1.80;;;;;;;9.14;100.00;95594.22;5037269;28;20035;-82
2021/11/02 11:45:29;;;;;;;3.42;1.65;;;;;;;10.41;100.00;95590.28;5037274;28;20028;-82
2021/11/02 11:48:24;;;;;;;2.67;1.20;;;;;;;10.54;96.31;95588.94;5036286;28;20502;-82
2021/11/02 11:50:51;;;;;;;7.10;1.23;;;;;;;10.45;95.05;95591.91;5036958;28;20029;-83
2021/11/02 11:53:21;;;;;;;3.00;1.30;;;;;;;10.30;93.73;95582.00;5037120;28;20028;-83
2021/11/02 11:56:01;;;;;;;2.65;1.00;;;;;;;10.18;95.72;95593.03;5037337;28;20135;-83
2021/11/02 11:58:27;;;;;;;3.15;1.30;;;;;;;10.23;96.91;95584.59;5037221;28;20475;-83
2021/11/02 12:01:09;;;;;;;2.03;1.00;;;;;;;9.80;94.58;95585.81;5036628;28;20021;-82
2021/11/02 12:03:53;;;;;;;1.25;0.90;;;;;;;9.60;96.18;95590.47;5037084;28;20060;-82
2021/11/02 12:06:39;;;;;;;1.90;0.80;;;;;;;9.52;96.82;95582.63;5037050;28;20036;-78
2021/11/02 12:09:19;;;;;;;2.30;0.80;;;;;;;9.49;95.78;95583.31;5036295;28;20025;-81
2021/11/02 12:11:46;;;;;;;1.93;0.90;;;;;;;9.32;97.29;95582.63;5069525;28;20461;-82
2021/11/02 12:14:25;;;;;;;3.97;1.02;;;;;;;9.18;97.22;95585.03;5070006;28;20021;-82
2021/11/02 12:16:51;;;;;;;2.55;0.93;;;;;;;8.90;98.80;95579.84;5054540;28;20529;-81
2021/11/02 12:19:36;;;;;;;1.20;0.73;;;;;;;8.73;100.00;95577.59;5054137;28;20060;-81
2021/11/02 12:22:06;;;;;;;2.88;1.17;;;;;;;8.69;100.00;95574.03;5053799;28;20072;-81
2021/11/02 12:24:34;;;;;;;2.77;1.10;;;;;;;8.66;100.00;95577.44;5036324;28;20055;-80
2021/11/02 12:27:13;;;;;;;6.25;1.10;;;;;;;8.58;100.00;95570.31;5036498;28;20498;-80
2021/11/02 12:29:40;;;;;;;3.22;1.05;;;;;;;8.60;100.00;95570.72;5054083;28;20025;-80
2021/11/02 12:32:06;;;;;;;1.25;0.90;;;;;;;8.47;100.00;95570.06;5069043;28;20123;-80
2021/11/02 12:34:47;;;;;;;2.70;0.80;;;;;;;8.47;100.00;95574.69;5036183;28;20079;-80
2021/11/02 12:37:18;;;;;;;1.10;0.80;;;;;;;8.41;100.00;95579.56;5053699;28;20025;-81
2021/11/02 12:39:44;;;;;;;2.55;0.80;;;;;;;8.42;100.00;95574.97;5036219;28;20025;-82
2021/11/02 12:42:11;;;;;;;1.40;0.70;;;;;;;8.53;100.00;95584.84;5035717;28;20029;-80
2021/11/02 12:44:38;;;;;;;7.18;0.85;;;;;;;8.61;100.00;95586.56;5035907;28;20024;-81
2021/11/02 12:47:12;;;;;;;1.02;0.63;;;;;;;8.61;100.00;95583.09;5035861;28;20029;-82
2021/11/02 12:49:46;;;;;;;1.88;0.70;;;;;;;8.66;100.00;95585.53;5035674;28;20021;-81
2021/11/02 12:52:13;;;;;;;1.65;0.60;;;;;;;8.67;100.00;95586.31;5035689;28;20115;-82
2021/11/02 12:54:40;;;;;;;1.25;0.68;;;;;;;8.71;100.00;95587.16;5052286;28;20037;-82
2021/11/02 12:57:13;;;;;;;1.27;0.70;;;;;;;8.79;100.00;95583.47;5069200;28;20025;-82
2021/11/02 12:59:58;;;;;;;3.72;0.85;;;;;;;8.96;100.00;95583.84;5053447;28;20033;-80
2021/11/02 13:02:34;;;;;;;2.00;0.80;;;;;;;9.17;100.00;95588.09;5053456;28;20059;-82
2021/11/02 13:05:06;;;;;;;1.65;0.80;;;;;;;9.17;98.45;95583.47;5035867;28;20029;-83
2021/11/02 13:07:40;;;;;;;2.45;0.60;;;;;;;9.20;98.84;95588.19;5035488;28;20028;-82
2021/11/02 13:10:16;;;;;;;1.33;0.70;;;;;;;9.18;97.47;95585.03;5068161;28;20049;-82
2021/11/02 13:12:44;;;;;;;1.92;0.60;;;;;;;9.22;96.44;95598.63;5035647;28;20497;-83
2021/11/02 13:15:13;;;;;;;1.03;0.60;;;;;;;9.00;98.08;95592.03;5068954;28;20032;-80
2021/11/02 13:17:42;;;;;;;2.00;0.70;;;;;;;8.89;97.81;95588.31;5035609;28;20047;-82
2021/11/02 13:20:25;;;;;;;1.88;0.70;;;;;;;8.69;98.22;95598.28;5052883;28;20039;-83
2021/11/02 13:22:52;;;;;;;2.80;1.15;;;;;;;8.56;98.34;95600.34;5053450;28;20029;-82
2021/11/02 13:25:23;;;;;;;1.73;0.80;;;;;;;8.43;99.35;95595.41;5035531;28;20119;-81
2021/11/02 13:27:53;;;;;;;2.13;0.70;;;;;;;8.37;99.77;95596.81;5035787;28;20128;-82
2021/11/02 13:30:30;;;;;;;1.23;0.80;;;;;;;8.34;100.00;95592.13;5035308;28;20025;-80
2021/11/02 13:33:05;;;;;;;1.00;0.57;;;;;;;8.27;100.00;95600.78;5035698;28;20076;-81
2021/11/02 13:35:53;;;;;;;3.50;1.60;;;;;;;8.21;99.59;95597.59;5053334;28;20029;-82
2021/11/02 13:38:24;;;;;;;5.55;2.50;;;;;;;8.21;99.47;95591.41;5035565;28;20048;-81
2021/11/02 13:40:51;;;;;;;4.20;2.75;;;;;;;8.15;99.82;95598.19;5035252;28;20478;-80
2021/11/02 13:43:30;;;;;;;3.05;1.95;;;;;;;8.15;99.51;95595.50;5035478;28;20025;-81
2021/11/02 13:45:55;;;;;;;1.20;0.80;;;;;;;8.20;99.10;95592.53;5052016;28;20424;-80
2021/11/02 13:48:22;;;;;;;2.15;1.40;;;;;;;8.20;99.05;95587.16;5035028;28;20032;-80
2021/11/02 13:50:48;;;;;;;4.20;1.30;;;;;;;8.24;98.93;95588.78;5034947;28;20021;-80
2021/11/02 13:53:13;;;;;;;2.10;1.05;;;;;;;8.25;98.88;95593.03;5068474;28;20475;-80
2021/11/02 13:55:39;;;;;;;2.37;1.03;;;;;;;8.24;99.34;95591.47;5035243;28;20052;-80
2021/11/02 13:58:04;;;;;;;3.30;1.38;;;;;;;8.19;99.21;95593.66;5052952;28;20021;-80
2021/11/02 14:00:31;;;;;;;3.30;0.80;;;;;;;8.17;97.50;95590.56;5034902;28;20035;-82
2021/11/02 14:03:02;;;;;;;2.85;0.82;;;;;;;8.15;97.30;95588.22;5035244;28;20025;-80
2021/11/02 14:05:29;;;;;;;1.70;1.10;;;;;;;8.13;95.99;95585.06;5053011;28;20033;-82
2021/11/02 14:07:56;;;;;;;1.20;0.70;;;;;;;8.17;96.08;95593.25;5052909;28;20386;-81
2021/11/02 14:10:27;;;;;;;1.20;0.60;;;;;;;8.29;96.47;95584.28;5037838;28;20427;-82
2021/11/02 14:12:53;;;;;;;1.02;0.80;;;;;;;8.43;96.33;95592.72;5039167;28;20060;-82
2021/11/02 14:15:20;;;;;;;1.43;0.80;;;;;;;8.51;94.61;95595.22;5038888;28;20118;-82
2021/11/02 14:18:09;;;;;;;0.95;0.80;;;;;;;8.65;93.61;95605.53;5039053;28;20027;-83
2021/11/02 14:20:49;;;;;;;0.85;0.68;;;;;;;8.69;92.88;95605.59;5038522;28;20037;-82
2021/11/02 14:23:39;;;;;;;1.60;1.10;;;;;;;8.52;91.47;95604.09;5056722;28;20474;-83
2021/11/02 14:26:25;;;;;;;1.63;0.80;;;;;;;8.45;90.50;95612.81;5038202;28;20486;-83
2021/11/02 14:29:02;;;;;;;4.03;2.17;;;;;;;8.41;91.39;95616.53;5038535;28;20025;-82
2021/11/02 14:31:33;;;;;;;1.95;1.30;;;;;;;8.37;92.09;95619.16;5038602;28;20447;-83
2021/11/02 14:34:00;;;;;;;2.03;1.08;;;;;;;8.33;91.66;95620.19;5038699;28;20048;-83
2021/11/02 14:36:45;;;;;;;1.40;1.00;;;;;;;8.34;90.87;95624.47;5056318;28;20108;-83
2021/11/02 14:39:12;;;;;;;1.25;0.80;;;;;;;8.27;91.68;95620.44;5038194;28;20029;-83
2021/11/02 14:41:46;;;;;;;1.27;0.77;;;;;;;8.21;91.56;95626.44;5055940;28;20052;-83
2021/11/02 14:44:17;;;;;;;1.10;0.60;;;;;;;8.28;92.12;95618.53;5038258;28;20490;-83
2021/11/02 14:46:50;;;;;;;1.05;0.77;;;;;;;8.32;91.56;95616.72;5038329;28;20036;-83
2021/11/02 14:49:37;;;;;;;0.90;0.67;;;;;;;8.21;91.22;95621.06;5055978;28;20025;-83
2021/11/02 14:52:08;;;;;;;1.00;0.70;;;;;;;8.21;91.78;95624.53;5037986;28;20386;-83
2021/11/02 14:54:44;;;;;;;1.00;0.57;;;;;;;8.29;91.38;95627.41;5038316;28;20391;-83
2021/11/02 14:57:19;;;;;;;0.90;0.75;;;;;;;8.21;91.21;95627.22;5038381;28;20021;-83
2021/11/02 14:59:52;;;;;;;1.52;0.70;;;;;;;8.17;91.31;95630.97;5055889;28;20029;-82
2021/11/02 15:02:31;;;;;;;1.43;0.80;;;;;;;8.13;91.91;95627.41;5037665;28;20037;-82
2021/11/02 15:05:03;;;;;;;1.10;0.70;;;;;;;8.05;92.55;95626.44;5037993;28;20025;-82
2021/11/02 15:07:30;;;;;;;1.15;0.73;;;;;;;8.01;92.86;95628.28;5055678;28;20102;-82
2021/11/02 15:09:57;;;;;;;1.92;0.80;;;;;;;7.91;93.15;95623.41;5055596;28;20474;-82
2021/11/02 15:12:23;;;;;;;1.20;0.77;;;;;;;7.79;94.02;95626.19;5070810;28;20478;-82
2021/11/02 15:14:49;;;;;;;1.90;0.90;;;;;;;7.68;94.65;95628.56;5038049;28;20063;-82
2021/11/02 15:17:19;;;;;;;2.28;0.98;;;;;;;7.66;94.96;95630.06;5038056;28;20387;-82
2021/11/02 15:19:45;;;;;;;1.45;0.98;;;;;;;7.57;95.12;95629.44;5071022;28;20060;-82
2021/11/02 15:22:13;;;;;;;1.85;1.20;;;;;;;7.47;95.57;95638.78;5037259;28;20044;-83
2021/11/02 15:24:42;;;;;;;1.38;0.90;;;;;;;7.42;95.88;95637.13;5037719;28;20536;-82
2021/11/02 15:27:12;;;;;;;0.93;0.70;;;;;;;7.39;95.30;95637.03;5070936;28;20083;-82
2021/11/02 15:29:50;;;;;;;1.85;0.70;;;;;;;7.38;95.91;95636.28;5070756;28;20112;-82
2021/11/02 15:32:21;;;;;;;0.70;0.50;;;;;;;7.26;97.38;95643.59;5036890;28;20123;-83
2021/11/02 15:35:02;;;;;;;1.20;0.60;;;;;;;7.13;98.77;95642.06;5070781;28;20025;-82
2021/11/02 15:37:31;;;;;;;1.15;0.80;;;;;;;7.02;99.84;95641.78;5037477;28;20359;-82
2021/11/02 15:40:03;;;;;;;1.50;0.60;;;;;;;6.95;100.00;95633.50;5037211;28;20029;-82
2021/11/02 15:42:32;;;;;;;1.15;0.75;;;;;;;6.86;100.00;95639.00;5070581;28;20478;-82
2021/11/02 15:45:04;;;;;;;1.10;0.60;;;;;;;6.77;100.00;95643.72;5070493;28;20029;-82
2021/11/02 15:47:31;;;;;;;1.80;0.70;;;;;;;6.69;100.00;95640.03;5037182;28;20078;-82
2021/11/02 15:50:03;;;;;;;1.38;0.70;;;;;;;6.59;100.00;95648.59;5055147;28;20108;-82
2021/11/02 15:52:31;;;;;;;1.05;0.60;;;;;;;6.61;100.00;95650.91;5037052;28;20039;-82
2021/11/02 15:55:10;;;;;;;0.93;0.80;;;;;;;6.59;100.00;95647.81;5037120;28;20032;-84
2021/11/02 15:57:53;;;;;;;1.33;0.70;;;;;;;6.55;100.00;95646.91;5070240;28;20025;-82
2021/11/02 16:00:21;;;;;;;1.35;0.77;;;;;;;6.55;100.00;95647.69;5036978;28;20028;-83
2021/11/02 16:02:48;;;;;;;0.88;0.52;;;;;;;6.53;100.00;95654.53;5037009;28;20356;-83
2021/11/02 16:05:28;;;;;;;0.90;0.50;;;;;;;6.47;100.00;95653.94;5054735;28;20036;-83
2021/11/02 16:08:01;;;;;;;2.00;0.93;;;;;;;6.45;100.00;95660.81;5054533;28;20041;-83
2021/11/02 16:10:29;;;;;;;1.15;0.70;;;;;;;6.41;100.00;95655.31;5036552;28;20025;-82
2021/11/02 16:12:56;;;;;;;1.40;0.60;;;;;;;6.38;100.00;95661.38;5036692;28;20021;-83
2021/11/02 16:15:34;;;;;;;1.95;0.90;;;;;;;6.37;100.00;95661.69;5036742;28;20017;-82
2021/11/02 16:18:06;;;;;;;1.63;0.95;;;;;;;6.38;100.00;95669.44;5054707;28;20386;-82
2021/11/02 16:20:35;;;;;;;1.42;0.70;;;;;;;6.38;100.00;95679.41;5036509;28;20028;-82
2021/11/02 16:23:12;;;;;;;2.70;1.60;;;;;;;6.36;100.00;95677.03;5036809;28;20032;-82
2021/11/02 16:26:02;;;;;;;3.88;1.77;;;;;;;6.41;100.00;95686.78;5036802;28;20028;-83
2021/11/02 16:28:31;;;;;;;1.15;0.90;;;;;;;6.45;100.00;95691.16;5033664;28;20033;-82
2021/11/02 16:31:00;;;;;;;2.33;1.13;;;;;;;6.47;100.00;95688.09;5036368;28;20135;-82
2021/11/02 16:33:39;;;;;;;2.13;1.13;;;;;;;6.53;100.00;95690.25;5036138;28;20049;-82
2021/11/02 16:36:30;;;;;;;3.28;1.60;;;;;;;6.54;100.00;95691.03;5054198;28;20032;-81
2021/11/02 16:39:19;;;;;;;2.78;1.48;;;;;;;6.55;100.00;95690.69;5054356;28;20356;-82
2021/11/02 16:41:49;;;;;;;2.00;1.30;;;;;;;6.55;100.00;95695.28;5036106;28;20016;-81
2021/11/02 16:44:26;;;;;;;2.38;1.20;;;;;;;6.57;100.00;95701.09;5036329;28;20526;-81
2021/11/02 16:47:04;;;;;;;2.55;1.05;;;;;;;6.53;100.00;95692.16;5036093;28;20455;-81
2021/11/02 16:49:30;;;;;;;2.53;0.90;;;;;;;6.48;100.00;95684.31;5035790;28;20032;-81
2021/11/02 16:52:04;;;;;;;1.95;1.27;;;;;;;6.47;100.00;95685.41;5053417;28;20029;-81
2021/11/02 16:54:44;;;;;;;2.88;1.10;;;;;;;6.40;100.00;95690.56;5035880;28;20025;-81